Manitowoc, Wisconsin
Current Conditions -  °F | °C
As of 7:56 AM on Monday 20 Oct 2014 (Local Time) from KMTW Reporting Station
Overcast Overcast  
Wind Chill: 45°   Ceiling: 6000
Heat Index: 49°   Visibility: 10mi
Dew Point: 45°   Wind: 8mph
Humidity: 86%   Direction: 330°NNW
Pressure: 29.8"   Gusts: NA
Location:  44.11°N, 87.66°W
Report Text: KMTW 201256Z AUTO 33007KT 10SM OVC060 09/07 A2980 RMK AO2 SLP119 T00940072
Loading
Personal Weather Stations






























Interactive Weather Map
Tropical Storm Tracking
New forecast layout! Learn more

10-Day Weather Forecast

Advertisements
Track Severe Weather on mobile